Time;durP1;ratioP1;P1;durP2;ratioP2;P2;SDS_P1;SDS_P2;PMS_P1;PMS_P2;Temp;Humidity;BMP_temperature;BMP_pressure;BME280_temperature;BME280_humidity;BME280_pressure;Samples;Min_cycle;Max_cycle;Signal;HPM_P1;HPM_P2
2022/12/20 00:01:21;;;;;;;73.82;9.05;;;;;;;;;;5051524;28;20040;-55
2022/12/20 00:03:49;;;;;;;56.83;6.65;;;;;;;;;;5051517;28;20463;-55
2022/12/20 00:06:17;;;;;;;63.67;8.38;;;;;;;;;;5051666;28;20029;-52
2022/12/20 00:08:44;;;;;;;74.70;9.00;;;;;;;;;;5051570;28;20116;-54
2022/12/20 00:11:12;;;;;;;62.60;7.13;;;;;;;;;;5051193;28;20033;-55
2022/12/20 00:13:39;;;;;;;49.78;6.85;;;;;;;;;;5051726;28;20037;-54
2022/12/20 00:16:11;;;;;;;47.65;5.65;;;;;;;;;;5051370;28;20643;-51
2022/12/20 00:18:38;;;;;;;46.67;6.28;;;;;;;;;;5051095;28;20401;-55
2022/12/20 00:21:06;;;;;;;38.15;5.25;;;;;;;;;;5051261;28;20031;-53
2022/12/20 00:23:33;;;;;;;36.95;4.88;;;;;;;;;;5051497;28;20045;-55
2022/12/20 00:26:04;;;;;;;42.35;5.55;;;;;;;;;;5051048;28;20113;-55
2022/12/20 00:28:32;;;;;;;40.42;5.55;;;;;;;;;;5050935;28;20035;-53
2022/12/20 00:30:59;;;;;;;50.60;6.90;;;;;;;;;;5050768;28;20025;-55
2022/12/20 00:33:26;;;;;;;50.05;6.68;;;;;;;;;;5050740;28;20405;-55
2022/12/20 00:35:55;;;;;;;58.30;6.50;;;;;;;;;;5033327;28;20443;-52
2022/12/20 00:38:22;;;;;;;47.35;6.22;;;;;;;;;;5050946;28;20053;-52
2022/12/20 00:40:59;;;;;;;38.58;5.63;;;;;;;;;;5050756;28;20033;-56
2022/12/20 00:43:26;;;;;;;36.08;4.85;;;;;;;;;;5051457;28;20029;-52
2022/12/20 00:45:54;;;;;;;40.53;5.65;;;;;;;;;;5051165;28;20035;-56
2022/12/20 00:48:20;;;;;;;42.45;5.63;;;;;;;;;;5050880;28;20017;-54
2022/12/20 00:50:47;;;;;;;34.90;5.22;;;;;;;;;;5050920;28;20029;-50
2022/12/20 00:53:14;;;;;;;39.60;5.25;;;;;;;;;;5050735;28;20033;-55
2022/12/20 00:55:45;;;;;;;37.88;5.32;;;;;;;;;;5053705;28;20021;-55
2022/12/20 00:58:13;;;;;;;35.42;5.40;;;;;;;;;;5055272;28;20501;-55
2022/12/20 01:00:40;;;;;;;40.58;5.38;;;;;;;;;;5054987;28;20039;-57
2022/12/20 01:03:07;;;;;;;47.53;7.00;;;;;;;;;;5054825;28;20040;-57
2022/12/20 01:05:34;;;;;;;32.35;5.63;;;;;;;;;;5055053;28;20394;-51
2022/12/20 01:08:01;;;;;;;33.08;4.75;;;;;;;;;;5059478;28;20051;-50
2022/12/20 01:10:28;;;;;;;40.72;5.20;;;;;;;;;;5059066;28;20112;-52
2022/12/20 01:12:55;;;;;;;29.75;4.70;;;;;;;;;;5054251;28;20039;-54
2022/12/20 01:15:22;;;;;;;30.30;4.97;;;;;;;;;;5054379;28;20037;-53
2022/12/20 01:17:50;;;;;;;28.80;5.05;;;;;;;;;;5053987;28;20075;-55
2022/12/20 01:20:18;;;;;;;41.53;5.50;;;;;;;;;;5056937;28;20032;-53
2022/12/20 01:22:44;;;;;;;34.10;5.53;;;;;;;;;;5064150;28;20044;-54
2022/12/20 01:25:11;;;;;;;22.05;4.25;;;;;;;;;;5063262;28;20075;-51
2022/12/20 01:27:38;;;;;;;32.22;4.72;;;;;;;;;;5071587;28;20027;-53
2022/12/20 01:30:06;;;;;;;34.45;3.92;;;;;;;;;;5074338;28;20064;-58
2022/12/20 01:32:33;;;;;;;25.20;4.50;;;;;;;;;;5056289;28;20603;-54
2022/12/20 01:35:00;;;;;;;36.40;6.20;;;;;;;;;;5074307;28;20032;-53
2022/12/20 01:37:26;;;;;;;30.17;4.85;;;;;;;;;;5074193;28;20044;-54
2022/12/20 01:39:53;;;;;;;28.90;4.53;;;;;;;;;;5074129;28;20040;-54
2022/12/20 01:42:20;;;;;;;25.42;5.05;;;;;;;;;;5074670;28;20024;-52
2022/12/20 01:44:52;;;;;;;34.35;5.05;;;;;;;;;;5062531;28;20033;-53
2022/12/20 01:47:20;;;;;;;33.90;5.50;;;;;;;;;;5054054;28;20571;-57
2022/12/20 01:49:49;;;;;;;26.42;4.82;;;;;;;;;;5054177;28;20096;-55
2022/12/20 01:52:18;;;;;;;28.42;5.20;;;;;;;;;;5054086;28;20040;-53
2022/12/20 01:54:48;;;;;;;44.60;5.47;;;;;;;;;;5053787;28;20073;-57
2022/12/20 01:57:20;;;;;;;27.63;3.90;;;;;;;;;;5053425;28;20039;-57
2022/12/20 01:59:49;;;;;;;41.75;4.05;;;;;;;;;;5054059;28;20032;-57
2022/12/20 02:02:16;;;;;;;28.83;3.78;;;;;;;;;;5055867;28;20367;-55
2022/12/20 02:04:43;;;;;;;28.88;3.80;;;;;;;;;;5060348;28;20375;-54
2022/12/20 02:07:12;;;;;;;25.20;3.80;;;;;;;;;;5056434;28;20474;-58
2022/12/20 02:09:39;;;;;;;29.13;4.35;;;;;;;;;;5053699;28;20037;-57
2022/12/20 02:12:16;;;;;;;28.40;3.78;;;;;;;;;;5054426;28;20033;-56
2022/12/20 02:14:48;;;;;;;32.05;3.47;;;;;;;;;;5054201;28;20061;-55
2022/12/20 02:17:30;;;;;;;32.00;4.03;;;;;;;;;;5054393;28;20055;-58
2022/12/20 02:20:00;;;;;;;45.35;5.07;;;;;;;;;;5054340;28;20029;-57
2022/12/20 02:22:41;;;;;;;37.85;4.18;;;;;;;;;;5056912;28;20021;-57
2022/12/20 02:25:11;;;;;;;29.98;3.67;;;;;;;;;;5062230;28;20036;-58
2022/12/20 02:27:38;;;;;;;28.67;3.80;;;;;;;;;;5063250;28;20029;-58
2022/12/20 02:30:05;;;;;;;21.75;3.22;;;;;;;;;;5064398;28;21483;-57
2022/12/20 02:32:44;;;;;;;15.82;2.72;;;;;;;;;;5060133;28;20552;-58
2022/12/20 02:35:13;;;;;;;25.35;3.15;;;;;;;;;;5058534;28;20036;-57
2022/12/20 02:37:50;;;;;;;35.22;3.20;;;;;;;;;;5060511;28;20129;-55
2022/12/20 02:40:19;;;;;;;21.58;3.80;;;;;;;;;;5061261;28;20108;-59
2022/12/20 02:42:47;;;;;;;31.65;4.63;;;;;;;;;;5042308;28;20182;-56
2022/12/20 02:45:15;;;;;;;36.63;4.15;;;;;;;;;;5059245;28;20493;-57
2022/12/20 02:47:48;;;;;;;30.42;3.85;;;;;;;;;;5059385;28;20036;-57
2022/12/20 02:50:18;;;;;;;27.05;3.20;;;;;;;;;;5054359;28;20064;-58
2022/12/20 02:52:45;;;;;;;23.73;3.50;;;;;;;;;;5061597;28;20086;-58
2022/12/20 02:55:12;;;;;;;15.48;3.20;;;;;;;;;;5053889;28;20032;-56
2022/12/20 02:57:49;;;;;;;19.08;3.17;;;;;;;;;;5061732;28;20029;-56
2022/12/20 03:00:20;;;;;;;24.25;3.22;;;;;;;;;;5062027;28;20028;-57
2022/12/20 03:05:34;;;;;;;23.55;2.95;;;;;;;;;;5062027;28;20286;-56
2022/12/20 03:08:02;;;;;;;22.00;3.10;;;;;;;;;;5067348;28;20113;-59
2022/12/20 03:10:29;;;;;;;28.10;3.65;;;;;;;;;;5073304;28;20058;-58
2022/12/20 03:12:56;;;;;;;28.02;3.40;;;;;;;;;;5062662;28;20052;-56
2022/12/20 03:15:23;;;;;;;20.17;3.47;;;;;;;;;;5062336;28;20086;-59
2022/12/20 03:17:50;;;;;;;15.77;2.55;;;;;;;;;;5063214;28;20108;-54
2022/12/20 03:20:17;;;;;;;19.58;3.05;;;;;;;;;;5064927;28;20531;-54
2022/12/20 03:22:44;;;;;;;18.45;3.00;;;;;;;;;;5042483;28;20040;-58
2022/12/20 03:25:11;;;;;;;21.33;3.13;;;;;;;;;;5058890;28;20580;-57
2022/12/20 03:27:38;;;;;;;22.65;3.22;;;;;;;;;;5058608;28;20471;-60
2022/12/20 03:30:06;;;;;;;24.60;3.10;;;;;;;;;;5058679;28;20029;-59
2022/12/20 03:32:33;;;;;;;13.43;3.35;;;;;;;;;;5059076;28;20033;-58
2022/12/20 03:35:00;;;;;;;23.63;3.08;;;;;;;;;;5056830;28;20120;-60
2022/12/20 03:37:28;;;;;;;18.08;2.95;;;;;;;;;;5048394;28;20529;-57
2022/12/20 03:39:55;;;;;;;20.98;3.45;;;;;;;;;;5046927;28;20078;-55
2022/12/20 03:42:22;;;;;;;16.60;2.80;;;;;;;;;;5060878;28;20033;-59
2022/12/20 03:44:49;;;;;;;21.15;3.65;;;;;;;;;;5063028;28;20020;-58
2022/12/20 03:47:16;;;;;;;17.10;3.28;;;;;;;;;;5062192;28;20467;-57
2022/12/20 03:49:43;;;;;;;32.38;4.25;;;;;;;;;;5060661;28;20045;-58
2022/12/20 03:52:14;;;;;;;23.75;3.60;;;;;;;;;;5062641;28;20016;-56
2022/12/20 03:54:41;;;;;;;33.50;3.58;;;;;;;;;;5062848;28;20041;-57
2022/12/20 03:57:08;;;;;;;33.97;4.60;;;;;;;;;;5072440;28;20055;-55
2022/12/20 03:59:35;;;;;;;28.98;3.83;;;;;;;;;;5072361;28;20104;-54
2022/12/20 04:02:02;;;;;;;20.98;2.95;;;;;;;;;;5072270;28;20029;-56
2022/12/20 04:04:29;;;;;;;21.75;3.17;;;;;;;;;;5072210;28;20402;-57
2022/12/20 04:06:56;;;;;;;31.38;4.38;;;;;;;;;;5072284;28;20032;-58
2022/12/20 04:09:23;;;;;;;20.63;3.22;;;;;;;;;;5072355;28;20799;-58
2022/12/20 04:11:50;;;;;;;27.55;4.05;;;;;;;;;;5072091;28;20029;-57
2022/12/20 04:14:17;;;;;;;26.98;3.15;;;;;;;;;;5072201;28;20028;-54
2022/12/20 04:16:45;;;;;;;17.65;3.45;;;;;;;;;;5071971;28;20037;-56
2022/12/20 04:19:12;;;;;;;28.60;3.45;;;;;;;;;;5072247;28;20020;-56
2022/12/20 04:21:39;;;;;;;21.80;3.17;;;;;;;;;;5072124;28;20440;-57
2022/12/20 04:24:06;;;;;;;18.58;3.33;;;;;;;;;;5072060;28;20020;-58
2022/12/20 04:26:33;;;;;;;13.05;3.00;;;;;;;;;;5071658;28;20451;-56
2022/12/20 04:29:00;;;;;;;14.20;3.20;;;;;;;;;;5071196;28;20023;-56
2022/12/20 04:31:27;;;;;;;26.00;2.92;;;;;;;;;;5072091;28;20056;-57
2022/12/20 04:33:54;;;;;;;19.30;2.70;;;;;;;;;;5071918;28;20089;-56
2022/12/20 04:36:22;;;;;;;21.55;2.97;;;;;;;;;;5071905;28;20059;-56
2022/12/20 04:38:49;;;;;;;17.25;2.90;;;;;;;;;;5071745;28;20044;-57
2022/12/20 04:41:21;;;;;;;15.80;3.28;;;;;;;;;;5071758;28;20028;-57
2022/12/20 04:43:52;;;;;;;24.25;3.00;;;;;;;;;;5072015;28;20028;-55
2022/12/20 04:46:20;;;;;;;17.98;3.08;;;;;;;;;;5071784;28;20025;-56
2022/12/20 04:48:47;;;;;;;23.42;3.30;;;;;;;;;;5071847;28;20020;-57
2022/12/20 04:51:14;;;;;;;18.85;3.58;;;;;;;;;;5071816;28;20040;-57
2022/12/20 04:53:47;;;;;;;21.90;2.70;;;;;;;;;;5053883;28;20060;-57
2022/12/20 04:56:15;;;;;;;19.50;2.90;;;;;;;;;;5053575;28;20054;-54
2022/12/20 04:58:42;;;;;;;22.52;2.97;;;;;;;;;;5071744;28;20024;-56
2022/12/20 05:01:09;;;;;;;29.70;3.33;;;;;;;;;;5071604;28;20033;-56
2022/12/20 05:03:36;;;;;;;24.48;3.28;;;;;;;;;;5071577;28;20028;-58
2022/12/20 05:06:03;;;;;;;24.73;3.35;;;;;;;;;;5071589;28;20529;-57
2022/12/20 05:08:30;;;;;;;18.38;2.92;;;;;;;;;;5071670;28;20437;-55
2022/12/20 05:10:57;;;;;;;20.13;2.67;;;;;;;;;;5071700;28;20036;-56
2022/12/20 05:13:24;;;;;;;16.63;2.85;;;;;;;;;;5071553;28;20126;-56
2022/12/20 05:15:55;;;;;;;19.63;2.85;;;;;;;;;;5071321;28;20021;-56
2022/12/20 05:18:22;;;;;;;20.33;3.05;;;;;;;;;;5071376;28;20082;-59
2022/12/20 05:26:16;;;;;;;19.52;3.13;;;;;;;;;;5071472;28;20032;-55
2022/12/20 05:26:23;;;;;;;13.07;2.47;;;;;;;;;;5071679;28;20069;-53
2022/12/20 05:28:50;;;;;;;17.75;2.80;;;;;;;;;;5071244;28;20456;-57
2022/12/20 05:31:17;;;;;;;14.52;2.70;;;;;;;;;;5071496;28;20390;-61
2022/12/20 05:33:44;;;;;;;17.15;2.90;;;;;;;;;;5071558;28;20578;-57
2022/12/20 05:36:11;;;;;;;15.50;2.85;;;;;;;;;;5071103;28;20120;-57
2022/12/20 05:38:38;;;;;;;20.85;2.95;;;;;;;;;;5071178;28;20460;-53
2022/12/20 05:41:05;;;;;;;17.13;2.50;;;;;;;;;;5072886;28;20382;-58
2022/12/20 05:43:32;;;;;;;21.35;3.38;;;;;;;;;;5074800;28;20075;-57
2022/12/20 05:45:59;;;;;;;19.90;2.80;;;;;;;;;;5074410;28;20032;-54
2022/12/20 05:48:26;;;;;;;16.17;2.22;;;;;;;;;;5074903;28;20025;-58
2022/12/20 05:50:53;;;;;;;17.98;3.10;;;;;;;;;;5074931;28;20046;-58
2022/12/20 05:53:20;;;;;;;15.90;2.88;;;;;;;;;;5074694;28;20071;-58
2022/12/20 05:55:48;;;;;;;21.77;2.85;;;;;;;;;;5074636;28;20035;-57
2022/12/20 05:58:15;;;;;;;26.67;3.25;;;;;;;;;;5074436;28;20486;-55
2022/12/20 06:00:43;;;;;;;24.90;3.00;;;;;;;;;;5055948;28;20024;-58
2022/12/20 06:03:10;;;;;;;22.13;3.15;;;;;;;;;;5053331;28;20079;-56
2022/12/20 06:05:38;;;;;;;16.38;3.20;;;;;;;;;;5054615;28;20148;-58
2022/12/20 06:08:06;;;;;;;20.85;3.35;;;;;;;;;;5054395;28;20025;-54
2022/12/20 06:10:33;;;;;;;17.20;2.92;;;;;;;;;;5054162;28;20051;-58
2022/12/20 06:13:01;;;;;;;15.07;2.72;;;;;;;;;;5036434;28;20036;-58
2022/12/20 06:15:28;;;;;;;19.48;2.60;;;;;;;;;;5036467;28;20086;-57
2022/12/20 06:17:55;;;;;;;19.20;2.70;;;;;;;;;;5054259;28;20051;-54
2022/12/20 06:20:22;;;;;;;13.40;2.63;;;;;;;;;;5054418;28;20020;-56
2022/12/20 06:22:49;;;;;;;15.50;2.83;;;;;;;;;;5054361;28;20047;-57
2022/12/20 06:25:16;;;;;;;18.40;3.00;;;;;;;;;;5054394;28;20483;-57
2022/12/20 06:27:43;;;;;;;20.23;2.90;;;;;;;;;;5054017;28;20041;-57
2022/12/20 06:30:11;;;;;;;18.60;3.08;;;;;;;;;;5054165;28;20024;-55
2022/12/20 06:32:38;;;;;;;16.73;2.97;;;;;;;;;;5054079;28;20772;-58
2022/12/20 06:35:05;;;;;;;19.50;3.05;;;;;;;;;;5054047;28;20029;-59
2022/12/20 06:37:32;;;;;;;19.23;3.17;;;;;;;;;;5053818;28;20050;-58
2022/12/20 06:39:59;;;;;;;19.83;2.97;;;;;;;;;;5053953;28;20037;-57
2022/12/20 06:42:26;;;;;;;16.63;3.10;;;;;;;;;;5053942;28;20106;-57
2022/12/20 06:44:53;;;;;;;19.60;3.33;;;;;;;;;;5053615;28;20141;-55
2022/12/20 06:47:20;;;;;;;16.55;3.17;;;;;;;;;;5053713;28;20029;-56
2022/12/20 06:49:47;;;;;;;17.48;2.75;;;;;;;;;;5053906;28;20490;-56
2022/12/20 06:52:14;;;;;;;17.20;3.03;;;;;;;;;;5052794;28;20029;-58
2022/12/20 06:54:41;;;;;;;18.45;3.22;;;;;;;;;;5053707;28;20120;-57
2022/12/20 06:57:08;;;;;;;18.35;3.40;;;;;;;;;;5053644;28;20498;-56
2022/12/20 06:59:35;;;;;;;16.98;3.47;;;;;;;;;;5053630;28;20021;-59
2022/12/20 07:02:02;;;;;;;17.92;3.08;;;;;;;;;;5053376;28;20395;-57
2022/12/20 07:04:29;;;;;;;17.92;3.20;;;;;;;;;;5053667;28;20060;-56
2022/12/20 07:06:56;;;;;;;17.55;2.85;;;;;;;;;;5053537;28;20024;-58
2022/12/20 07:09:23;;;;;;;15.93;3.03;;;;;;;;;;5053458;28;20029;-56
2022/12/20 07:11:51;;;;;;;13.55;3.00;;;;;;;;;;5053393;28;20103;-55
2022/12/20 07:14:18;;;;;;;18.17;2.97;;;;;;;;;;5052977;28;20045;-54
2022/12/20 07:16:44;;;;;;;12.73;2.58;;;;;;;;;;5053175;28;20123;-57
2022/12/20 07:19:12;;;;;;;13.85;2.45;;;;;;;;;;5035366;28;20108;-58
2022/12/20 07:21:39;;;;;;;15.02;2.30;;;;;;;;;;5053107;28;20033;-58
2022/12/20 07:24:07;;;;;;;19.25;2.80;;;;;;;;;;5053117;28;20033;-56
2022/12/20 07:26:34;;;;;;;19.27;2.85;;;;;;;;;;5053066;28;20040;-57
2022/12/20 07:29:01;;;;;;;26.20;2.75;;;;;;;;;;5053021;28;20028;-55
2022/12/20 07:31:28;;;;;;;16.67;2.80;;;;;;;;;;5052985;28;20382;-57
2022/12/20 07:33:55;;;;;;;12.88;2.58;;;;;;;;;;5052834;28;20044;-55
2022/12/20 07:36:22;;;;;;;16.42;2.70;;;;;;;;;;5053055;28;20033;-56
2022/12/20 07:38:49;;;;;;;13.50;2.40;;;;;;;;;;5052649;28;20049;-53
2022/12/20 07:41:19;;;;;;;13.85;2.17;;;;;;;;;;5052636;28;20032;-56
2022/12/20 07:43:46;;;;;;;17.73;2.30;;;;;;;;;;5052787;28;20074;-59
2022/12/20 07:46:14;;;;;;;14.20;2.15;;;;;;;;;;5052746;28;20029;-58
2022/12/20 07:48:41;;;;;;;13.50;2.10;;;;;;;;;;5052757;28;20491;-57
2022/12/20 07:51:10;;;;;;;14.18;2.50;;;;;;;;;;5052561;28;20037;-58
2022/12/20 07:53:39;;;;;;;15.00;2.47;;;;;;;;;;5052561;28;20028;-57
2022/12/20 07:56:07;;;;;;;17.10;2.60;;;;;;;;;;5052460;28;20025;-59
2022/12/20 07:58:35;;;;;;;16.30;2.40;;;;;;;;;;5052674;28;20021;-53
2022/12/20 08:01:03;;;;;;;10.68;2.10;;;;;;;;;;5052450;28;20021;-54
2022/12/20 08:03:37;;;;;;;14.40;2.10;;;;;;;;;;5052342;28;20115;-57
2022/12/20 08:06:05;;;;;;;12.10;2.50;;;;;;;;;;5052297;28;20108;-58
2022/12/20 08:08:33;;;;;;;16.25;2.30;;;;;;;;;;5052521;28;20021;-56
2022/12/20 08:11:00;;;;;;;18.48;2.50;;;;;;;;;;5052363;28;20116;-59
2022/12/20 08:13:27;;;;;;;13.93;2.30;;;;;;;;;;5052254;28;20045;-54
2022/12/20 08:15:54;;;;;;;14.05;2.47;;;;;;;;;;5052255;28;20390;-59
2022/12/20 08:18:21;;;;;;;13.90;2.33;;;;;;;;;;5052223;28;20111;-58
2022/12/20 08:20:48;;;;;;;15.27;2.42;;;;;;;;;;5052115;28;20028;-53
2022/12/20 08:23:15;;;;;;;12.82;2.10;;;;;;;;;;5052210;28;20025;-57
2022/12/20 08:25:42;;;;;;;18.35;2.45;;;;;;;;;;5051898;28;20557;-54
2022/12/20 08:28:09;;;;;;;24.60;2.95;;;;;;;;;;5052097;28;20070;-57
2022/12/20 08:30:36;;;;;;;17.17;2.90;;;;;;;;;;5051953;28;20040;-56
2022/12/20 08:33:04;;;;;;;14.02;2.55;;;;;;;;;;5051893;28;20079;-56
2022/12/20 08:35:31;;;;;;;20.25;3.20;;;;;;;;;;5051847;28;20036;-57
2022/12/20 08:37:58;;;;;;;21.77;3.03;;;;;;;;;;5051670;28;20522;-51
2022/12/20 08:40:25;;;;;;;16.80;2.72;;;;;;;;;;5051802;28;20481;-57
2022/12/20 08:42:52;;;;;;;25.48;3.00;;;;;;;;;;5051911;28;20102;-57
2022/12/20 08:45:19;;;;;;;21.05;2.72;;;;;;;;;;5051926;28;20025;-58
2022/12/20 08:47:46;;;;;;;23.17;2.70;;;;;;;;;;5051986;28;20029;-56
2022/12/20 08:50:13;;;;;;;23.05;2.75;;;;;;;;;;5051790;28;20108;-57
2022/12/20 08:52:40;;;;;;;16.70;2.45;;;;;;;;;;5051898;28;20114;-52
2022/12/20 08:55:07;;;;;;;17.63;2.75;;;;;;;;;;5051878;28;20048;-55
2022/12/20 08:57:34;;;;;;;24.52;2.58;;;;;;;;;;5051740;28;20029;-57
2022/12/20 09:00:02;;;;;;;20.95;3.05;;;;;;;;;;5051809;28;20051;-55
2022/12/20 09:02:29;;;;;;;26.48;2.92;;;;;;;;;;5051706;28;20033;-56
2022/12/20 09:04:56;;;;;;;12.05;2.38;;;;;;;;;;5051661;28;20104;-57
2022/12/20 09:07:23;;;;;;;21.98;2.70;;;;;;;;;;5051759;28;20025;-57
2022/12/20 09:09:50;;;;;;;24.80;3.22;;;;;;;;;;5051639;28;20044;-57
2022/12/20 09:12:17;;;;;;;23.27;4.03;;;;;;;;;;5051281;28;20064;-56
2022/12/20 09:14:44;;;;;;;17.73;2.88;;;;;;;;;;5051512;28;20044;-61
2022/12/20 09:17:11;;;;;;;16.55;3.15;;;;;;;;;;5037094;28;20486;-56
2022/12/20 09:19:38;;;;;;;24.38;3.03;;;;;;;;;;5055615;28;20025;-56
2022/12/20 09:22:05;;;;;;;20.42;3.03;;;;;;;;;;5055440;28;20033;-57
2022/12/20 09:24:32;;;;;;;13.32;2.90;;;;;;;;;;5055442;28;20072;-59
2022/12/20 09:26:59;;;;;;;18.40;2.88;;;;;;;;;;5055323;28;20032;-56
2022/12/20 09:29:26;;;;;;;31.77;3.90;;;;;;;;;;5055279;28;20037;-57
2022/12/20 09:31:52;;;;;;;20.52;2.53;;;;;;;;;;5055198;28;20029;-58
2022/12/20 09:34:19;;;;;;;20.42;3.10;;;;;;;;;;5055329;28;20057;-58
2022/12/20 09:36:46;;;;;;;24.27;3.25;;;;;;;;;;5055053;28;20064;-57
2022/12/20 09:39:13;;;;;;;18.45;2.95;;;;;;;;;;5055255;28;20044;-58
2022/12/20 09:41:42;;;;;;;23.17;2.50;;;;;;;;;;5055157;28;20025;-54
2022/12/20 09:44:15;;;;;;;19.83;3.15;;;;;;;;;;5055218;28;20036;-58
2022/12/20 09:46:43;;;;;;;18.35;2.58;;;;;;;;;;5054949;28;20039;-55
2022/12/20 09:49:17;;;;;;;29.48;3.25;;;;;;;;;;5055154;28;20024;-57
2022/12/20 09:51:59;;;;;;;19.15;2.83;;;;;;;;;;5055272;28;20383;-55
2022/12/20 09:54:50;;;;;;;28.52;3.70;;;;;;;;;;5054661;28;20036;-55
2022/12/20 09:57:46;;;;;;;24.40;3.38;;;;;;;;;;5054795;28;20490;-56
2022/12/20 10:00:17;;;;;;;21.95;2.95;;;;;;;;;;5000754;28;20038;-56
2022/12/20 10:02:45;;;;;;;31.75;3.90;;;;;;;;;;5054818;28;20439;-58
2022/12/20 10:05:22;;;;;;;25.40;4.10;;;;;;;;;;5054789;28;20070;-55
2022/12/20 10:07:55;;;;;;;35.15;4.50;;;;;;;;;;5054723;28;20058;-57
2022/12/20 10:10:25;;;;;;;33.40;4.65;;;;;;;;;;5054571;28;20035;-57
2022/12/20 10:12:53;;;;;;;29.10;3.92;;;;;;;;;;5054478;28;20045;-55
2022/12/20 10:15:27;;;;;;;25.67;3.70;;;;;;;;;;5054354;28;20091;-52
2022/12/20 10:18:12;;;;;;;25.40;3.85;;;;;;;;;;5054546;28;20044;-58
2022/12/20 10:20:45;;;;;;;25.55;2.83;;;;;;;;;;5054453;28;20059;-58
2022/12/20 10:23:22;;;;;;;20.10;2.70;;;;;;;;;;5054204;28;20044;-53
2022/12/20 10:25:53;;;;;;;27.55;3.25;;;;;;;;;;5054471;28;20033;-56
2022/12/20 10:28:24;;;;;;;27.83;4.00;;;;;;;;;;5052891;28;20021;-57
2022/12/20 10:30:51;;;;;;;24.30;3.97;;;;;;;;;;5054128;28;20074;-59
2022/12/20 10:33:22;;;;;;;28.85;3.70;;;;;;;;;;5053932;28;20040;-58
2022/12/20 10:35:51;;;;;;;28.15;3.67;;;;;;;;;;5053942;28;20029;-55
2022/12/20 10:38:19;;;;;;;30.27;3.83;;;;;;;;;;5053730;28;20052;-56
2022/12/20 10:40:47;;;;;;;33.05;3.88;;;;;;;;;;5052809;28;20036;-54
2022/12/20 10:43:17;;;;;;;27.08;3.42;;;;;;;;;;5053858;28;20132;-56
2022/12/20 10:45:46;;;;;;;33.40;3.65;;;;;;;;;;5053776;28;20445;-57
2022/12/20 10:48:31;;;;;;;35.15;4.57;;;;;;;;;;5053908;28;20025;-58
2022/12/20 10:51:00;;;;;;;34.97;5.10;;;;;;;;;;5053772;28;20033;-56
2022/12/20 10:53:27;;;;;;;33.85;4.30;;;;;;;;;;5053577;28;20033;-57
2022/12/20 10:55:55;;;;;;;46.13;5.55;;;;;;;;;;5053522;28;20032;-55
2022/12/20 10:58:31;;;;;;;53.08;7.00;;;;;;;;;;5053737;28;20036;-54
2022/12/20 11:01:27;;;;;;;34.92;4.00;;;;;;;;;;5053513;28;20036;-57
2022/12/20 11:03:55;;;;;;;37.28;5.00;;;;;;;;;;5040837;28;20044;-58
2022/12/20 11:06:23;;;;;;;45.67;5.78;;;;;;;;;;5053476;28;20040;-56
2022/12/20 11:08:50;;;;;;;36.63;4.90;;;;;;;;;;5053309;28;20048;-55
2022/12/20 11:11:20;;;;;;;35.58;4.93;;;;;;;;;;5053483;28;20101;-55
2022/12/20 11:13:48;;;;;;;33.85;4.35;;;;;;;;;;5053212;28;20033;-54
2022/12/20 11:16:34;;;;;;;46.92;4.22;;;;;;;;;;5053273;28;20029;-57
2022/12/20 11:19:06;;;;;;;36.85;3.90;;;;;;;;;;5053237;28;20036;-56
2022/12/20 11:21:32;;;;;;;;;;;;;;;;;;5053765;28;20183;-57
2022/12/20 11:24:02;;;;;;;33.05;4.40;;;;;;;;;;5053108;28;19905;-57
2022/12/20 11:26:29;;;;;;;48.53;4.53;;;;;;;;;;5053108;28;20032;-56
2022/12/20 11:28:56;;;;;;;40.97;4.13;;;;;;;;;;5052985;28;20041;-56
2022/12/20 11:31:58;;;;;;;41.85;5.38;;;;;;;;;;5052969;28;20041;-57
2022/12/20 11:34:39;;;;;;;43.35;5.80;;;;;;;;;;4991539;28;20042;-58
2022/12/20 11:37:18;;;;;;;31.40;4.65;;;;;;;;;;5046599;28;20056;-56
2022/12/20 11:39:58;;;;;;;36.83;4.47;;;;;;;;;;5052510;28;20036;-56
2022/12/20 11:42:42;;;;;;;41.25;5.22;;;;;;;;;;5061204;28;20082;-56
2022/12/20 11:45:09;;;;;;;60.47;7.30;;;;;;;;;;5072590;28;20047;-58
2022/12/20 11:47:42;;;;;;;48.53;5.70;;;;;;;;;;5072758;28;20024;-56
2022/12/20 11:50:09;;;;;;;42.67;4.97;;;;;;;;;;5072784;28;20029;-55
2022/12/20 11:52:39;;;;;;;48.85;5.40;;;;;;;;;;5054474;28;20043;-58
2022/12/20 11:55:20;;;;;;;56.92;6.15;;;;;;;;;;5072318;28;20039;-59
2022/12/20 11:58:05;;;;;;;62.80;6.75;;;;;;;;;;5072438;28;20048;-57
2022/12/20 12:00:34;;;;;;;59.55;7.28;;;;;;;;;;5072539;28;20537;-56
2022/12/20 12:03:04;;;;;;;72.55;8.15;;;;;;;;;;5071947;28;20036;-51
2022/12/20 12:05:42;;;;;;;76.80;6.97;;;;;;;;;;5071329;28;20124;-51
2022/12/20 12:08:13;;;;;;;73.25;7.45;;;;;;;;;;5072296;28;20036;-52
2022/12/20 12:10:42;;;;;;;75.00;7.97;;;;;;;;;;5072492;28;20024;-51
2022/12/20 12:13:17;;;;;;;65.00;7.00;;;;;;;;;;5072333;28;20040;-54
2022/12/20 12:15:59;;;;;;;67.53;7.55;;;;;;;;;;5072214;28;20024;-52
2022/12/20 12:18:30;;;;;;;67.88;7.72;;;;;;;;;;5072185;28;20027;-52
2022/12/20 12:21:00;;;;;;;48.13;6.63;;;;;;;;;;5066710;28;20021;-54
2022/12/20 12:23:31;;;;;;;44.78;6.47;;;;;;;;;;5069286;28;20421;-52
2022/12/20 12:26:04;;;;;;;51.90;6.22;;;;;;;;;;5072009;28;20458;-51
2022/12/20 12:28:31;;;;;;;55.90;7.50;;;;;;;;;;5072096;28;20122;-50
2022/12/20 12:31:00;;;;;;;52.10;6.68;;;;;;;;;;5071864;28;20024;-50
2022/12/20 12:33:56;;;;;;;51.88;6.20;;;;;;;;;;5072006;28;20036;-51
2022/12/20 12:36:38;;;;;;;42.42;6.40;;;;;;;;;;5055192;28;20460;-54
2022/12/20 12:39:34;;;;;;;51.55;6.85;;;;;;;;;;5070832;28;20060;-52
2022/12/20 12:42:04;;;;;;;38.08;5.60;;;;;;;;;;4999814;28;20038;-50
2022/12/20 12:44:42;;;;;;;37.40;5.50;;;;;;;;;;5071816;28;20032;-51
2022/12/20 12:47:19;;;;;;;49.70;6.43;;;;;;;;;;5065921;28;20132;-51
2022/12/20 12:49:48;;;;;;;45.72;5.97;;;;;;;;;;5050823;28;20032;-50
2022/12/20 12:52:29;;;;;;;41.55;5.85;;;;;;;;;;5051366;28;20036;-54
2022/12/20 12:54:56;;;;;;;51.70;6.70;;;;;;;;;;5051429;28;20033;-50
2022/12/20 12:57:23;;;;;;;40.88;5.88;;;;;;;;;;5051525;28;20033;-51
2022/12/20 12:59:51;;;;;;;44.80;6.10;;;;;;;;;;5051787;28;20025;-52
2022/12/20 13:02:19;;;;;;;39.50;6.03;;;;;;;;;;5051310;28;20040;-51
2022/12/20 13:05:05;;;;;;;44.58;6.50;;;;;;;;;;5051227;28;20419;-53
2022/12/20 13:07:32;;;;;;;41.95;6.45;;;;;;;;;;5051529;28;20487;-55
2022/12/20 13:10:28;;;;;;;33.50;5.22;;;;;;;;;;5051392;28;20032;-51
2022/12/20 13:13:01;;;;;;;38.67;6.00;;;;;;;;;;5051371;28;20137;-56
2022/12/20 13:15:31;;;;;;;33.53;6.13;;;;;;;;;;5051397;28;20487;-53
2022/12/20 13:18:02;;;;;;;35.60;5.30;;;;;;;;;;5051358;28;20045;-53
2022/12/20 13:20:30;;;;;;;43.20;6.20;;;;;;;;;;5051141;28;20112;-53
2022/12/20 13:26:01;;;;;;;37.92;5.13;;;;;;;;;;5051021;28;20437;-50
2022/12/20 13:28:28;;;;;;;40.05;7.15;;;;;;;;;;5051288;28;20082;-54
2022/12/20 13:31:03;;;;;;;33.65;6.20;;;;;;;;;;5051055;28;20033;-50
2022/12/20 13:33:44;;;;;;;32.38;5.72;;;;;;;;;;5050890;28;20056;-50
2022/12/20 13:36:10;;;;;;;31.55;4.72;;;;;;;;;;5050849;28;20033;-52
2022/12/20 13:38:44;;;;;;;36.38;5.65;;;;;;;;;;5051294;28;20075;-54
2022/12/20 13:41:26;;;;;;;34.47;5.47;;;;;;;;;;5050773;28;20044;-52
2022/12/20 13:43:54;;;;;;;39.78;5.78;;;;;;;;;;5051187;28;20494;-53
2022/12/20 13:46:39;;;;;;;31.85;5.05;;;;;;;;;;5051285;28;20021;-57
2022/12/20 13:49:09;;;;;;;37.97;5.80;;;;;;;;;;5050794;28;20108;-53
2022/12/20 13:51:36;;;;;;;32.53;5.38;;;;;;;;;;5051246;28;20348;-53
2022/12/20 13:54:08;;;;;;;37.28;5.47;;;;;;;;;;5033420;28;20048;-54
2022/12/20 13:56:41;;;;;;;30.25;5.82;;;;;;;;;;5050514;28;20039;-50
2022/12/20 13:59:15;;;;;;;34.78;6.35;;;;;;;;;;5051096;28;20032;-51
2022/12/20 14:01:56;;;;;;;35.10;5.22;;;;;;;;;;5052029;28;20096;-51
2022/12/20 14:04:24;;;;;;;32.00;5.75;;;;;;;;;;5054272;28;20067;-54
2022/12/20 14:06:56;;;;;;;33.72;5.47;;;;;;;;;;5036600;28;20494;-51
2022/12/20 14:09:34;;;;;;;30.83;5.53;;;;;;;;;;5054507;28;20441;-51
2022/12/20 14:12:12;;;;;;;23.45;4.75;;;;;;;;;;5054140;28;20108;-51
2022/12/20 14:14:43;;;;;;;39.35;5.50;;;;;;;;;;5054421;28;20033;-53
2022/12/20 14:17:16;;;;;;;37.17;5.97;;;;;;;;;;5054285;28;20033;-54
2022/12/20 14:19:43;;;;;;;32.97;5.55;;;;;;;;;;5054342;28;20025;-50
2022/12/20 14:22:11;;;;;;;39.15;5.72;;;;;;;;;;5054208;28;20072;-50
2022/12/20 14:24:43;;;;;;;35.75;5.53;;;;;;;;;;5053875;28;20028;-51
2022/12/20 14:27:14;;;;;;;30.40;5.03;;;;;;;;;;5054256;28;20437;-53
2022/12/20 14:29:41;;;;;;;36.05;6.20;;;;;;;;;;5054179;28;20828;-50
2022/12/20 14:32:17;;;;;;;38.10;5.65;;;;;;;;;;5053771;28;20399;-56
2022/12/20 14:34:46;;;;;;;33.13;5.88;;;;;;;;;;5053966;28;20065;-53
2022/12/20 14:37:33;;;;;;;26.65;5.10;;;;;;;;;;5053661;28;20506;-54
2022/12/20 14:40:14;;;;;;;31.15;5.28;;;;;;;;;;5053639;28;20029;-53
2022/12/20 14:42:41;;;;;;;37.22;5.80;;;;;;;;;;5054007;28;20039;-51
2022/12/20 14:45:11;;;;;;;27.20;5.55;;;;;;;;;;5053555;28;20091;-50
2022/12/20 14:47:39;;;;;;;26.30;4.82;;;;;;;;;;5053538;28;20025;-51
2022/12/20 14:50:14;;;;;;;23.85;4.63;;;;;;;;;;5053826;28;20083;-52
2022/12/20 14:52:41;;;;;;;31.60;5.68;;;;;;;;;;5053253;28;20041;-50
2022/12/20 14:55:14;;;;;;;29.80;5.05;;;;;;;;;;5053149;28;20104;-54